sensor_id;sensor_type;location;lat;lon;timestamp;P1;durP1;ratioP1;P2;durP2;ratioP2
15814;SDS011;8008;50.024;8.172;2023-07-29T03:02:58;2.97;;;2.67;;
15814;SDS011;8008;50.024;8.172;2023-07-29T03:05:27;4.22;;;2.88;;
15814;SDS011;8008;50.024;8.172;2023-07-29T03:07:57;4.45;;;3.08;;
15814;SDS011;8008;50.024;8.172;2023-07-29T03:10:25;3.20;;;2.90;;
15814;SDS011;8008;50.024;8.172;2023-07-29T03:12:53;6.20;;;3.13;;
15814;SDS011;8008;50.024;8.172;2023-07-29T03:15:23;4.03;;;3.10;;
15814;SDS011;8008;50.024;8.172;2023-07-29T03:17:51;4.03;;;3.30;;
15814;SDS011;8008;50.024;8.172;2023-07-29T03:20:21;3.40;;;2.88;;
15814;SDS011;8008;50.024;8.172;2023-07-29T03:22:50;3.75;;;3.38;;
15814;SDS011;8008;50.024;8.172;2023-07-29T03:25:18;3.53;;;3.25;;
15814;SDS011;8008;50.024;8.172;2023-07-29T03:27:46;4.95;;;3.25;;
15814;SDS011;8008;50.024;8.172;2023-07-29T03:30:19;3.60;;;3.30;;
15814;SDS011;8008;50.024;8.172;2023-07-29T03:32:49;3.47;;;3.17;;
15814;SDS011;8008;50.024;8.172;2023-07-29T03:35:18;4.60;;;3.25;;
15814;SDS011;8008;50.024;8.172;2023-07-29T03:37:47;4.00;;;3.25;;
15814;SDS011;8008;50.024;8.172;2023-07-29T03:40:15;3.10;;;2.80;;
15814;SDS011;8008;50.024;8.172;2023-07-29T03:42:43;5.60;;;2.95;;
15814;SDS011;8008;50.024;8.172;2023-07-29T03:45:11;4.50;;;3.40;;
15814;SDS011;8008;50.024;8.172;2023-07-29T03:47:39;3.33;;;3.00;;
15814;SDS011;8008;50.024;8.172;2023-07-29T03:50:07;4.13;;;3.17;;
15814;SDS011;8008;50.024;8.172;2023-07-29T03:52:36;4.28;;;3.30;;
15814;SDS011;8008;50.024;8.172;2023-07-29T03:55:06;4.28;;;3.40;;
15814;SDS011;8008;50.024;8.172;2023-07-29T03:57:34;4.10;;;3.50;;
15814;SDS011;8008;50.024;8.172;2023-07-29T04:00:02;4.28;;;3.25;;
15814;SDS011;8008;50.024;8.172;2023-07-29T04:02:40;4.60;;;3.17;;
15814;SDS011;8008;50.024;8.172;2023-07-29T04:05:10;4.88;;;3.60;;
15814;SDS011;8008;50.024;8.172;2023-07-29T04:07:38;3.63;;;3.33;;
15814;SDS011;8008;50.024;8.172;2023-07-29T04:10:14;3.90;;;3.60;;
15814;SDS011;8008;50.024;8.172;2023-07-29T04:12:42;3.40;;;3.10;;
15814;SDS011;8008;50.024;8.172;2023-07-29T04:15:10;3.85;;;3.33;;
15814;SDS011;8008;50.024;8.172;2023-07-29T04:17:38;4.32;;;3.70;;
15814;SDS011;8008;50.024;8.172;2023-07-29T04:20:07;3.53;;;3.22;;
15814;SDS011;8008;50.024;8.172;2023-07-29T04:22:35;4.00;;;3.17;;
15814;SDS011;8008;50.024;8.172;2023-07-29T04:25:04;4.35;;;3.22;;
15814;SDS011;8008;50.024;8.172;2023-07-29T04:27:34;3.47;;;3.15;;
15814;SDS011;8008;50.024;8.172;2023-07-29T04:30:02;3.38;;;3.08;;
15814;SDS011;8008;50.024;8.172;2023-07-29T04:32:31;3.75;;;3.40;;
15814;SDS011;8008;50.024;8.172;2023-07-29T04:34:59;4.15;;;3.35;;
15814;SDS011;8008;50.024;8.172;2023-07-29T04:37:27;4.00;;;3.47;;
15814;SDS011;8008;50.024;8.172;2023-07-29T04:39:55;4.57;;;3.78;;
15814;SDS011;8008;50.024;8.172;2023-07-29T04:42:22;3.58;;;3.28;;
15814;SDS011;8008;50.024;8.172;2023-07-29T04:44:52;4.00;;;3.25;;
15814;SDS011;8008;50.024;8.172;2023-07-29T04:47:20;3.47;;;3.17;;
15814;SDS011;8008;50.024;8.172;2023-07-29T04:49:49;3.33;;;3.10;;
15814;SDS011;8008;50.024;8.172;2023-07-29T04:52:17;4.53;;;3.40;;
15814;SDS011;8008;50.024;8.172;2023-07-29T04:54:46;3.25;;;3.03;;
15814;SDS011;8008;50.024;8.172;2023-07-29T04:57:14;3.00;;;2.80;;
15814;SDS011;8008;50.024;8.172;2023-07-29T04:59:42;3.80;;;2.95;;
15814;SDS011;8008;50.024;8.172;2023-07-29T05:02:11;3.15;;;2.83;;
15814;SDS011;8008;50.024;8.172;2023-07-29T05:04:39;3.30;;;2.83;;
15814;SDS011;8008;50.024;8.172;2023-07-29T05:07:08;2.78;;;2.58;;
15814;SDS011;8008;50.024;8.172;2023-07-29T05:09:36;2.78;;;2.58;;
15814;SDS011;8008;50.024;8.172;2023-07-29T05:12:05;2.72;;;2.53;;
15814;SDS011;8008;50.024;8.172;2023-07-29T05:14:33;4.45;;;2.80;;
15814;SDS011;8008;50.024;8.172;2023-07-29T05:17:01;4.03;;;2.78;;
15814;SDS011;8008;50.024;8.172;2023-07-29T05:19:30;3.10;;;2.80;;
15814;SDS011;8008;50.024;8.172;2023-07-29T05:21:58;4.82;;;3.30;;
15814;SDS011;8008;50.024;8.172;2023-07-29T05:24:27;5.30;;;3.10;;
15814;SDS011;8008;50.024;8.172;2023-07-29T05:26:55;3.15;;;2.88;;
15814;SDS011;8008;50.024;8.172;2023-07-29T05:29:23;3.10;;;2.90;;
15814;SDS011;8008;50.024;8.172;2023-07-29T05:31:51;3.58;;;2.65;;
15814;SDS011;8008;50.024;8.172;2023-07-29T05:34:19;3.45;;;3.15;;
15814;SDS011;8008;50.024;8.172;2023-07-29T05:36:49;3.15;;;2.95;;
15814;SDS011;8008;50.024;8.172;2023-07-29T05:39:16;4.60;;;3.10;;
15814;SDS011;8008;50.024;8.172;2023-07-29T05:41:44;3.00;;;2.70;;
15814;SDS011;8008;50.024;8.172;2023-07-29T05:44:13;3.65;;;2.35;;
15814;SDS011;8008;50.024;8.172;2023-07-29T05:46:41;3.28;;;2.88;;
15814;SDS011;8008;50.024;8.172;2023-07-29T05:49:09;2.97;;;2.75;;
15814;SDS011;8008;50.024;8.172;2023-07-29T05:51:40;4.18;;;2.78;;
15814;SDS011;8008;50.024;8.172;2023-07-29T05:54:09;5.20;;;3.40;;
15814;SDS011;8008;50.024;8.172;2023-07-29T05:56:37;6.90;;;3.60;;
15814;SDS011;8008;50.024;8.172;2023-07-29T05:59:08;3.50;;;3.20;;
15814;SDS011;8008;50.024;8.172;2023-07-29T06:01:36;4.13;;;3.33;;
15814;SDS011;8008;50.024;8.172;2023-07-29T06:04:05;3.50;;;3.20;;
15814;SDS011;8008;50.024;8.172;2023-07-29T06:06:33;3.53;;;3.22;;
15814;SDS011;8008;50.024;8.172;2023-07-29T06:09:02;4.18;;;3.28;;
15814;SDS011;8008;50.024;8.172;2023-07-29T06:11:33;3.42;;;3.13;;
15814;SDS011;8008;50.024;8.172;2023-07-29T06:14:01;4.25;;;3.47;;
15814;SDS011;8008;50.024;8.172;2023-07-29T06:16:29;5.22;;;3.90;;
15814;SDS011;8008;50.024;8.172;2023-07-29T06:18:57;4.40;;;3.53;;
15814;SDS011;8008;50.024;8.172;2023-07-29T06:21:25;4.35;;;3.70;;
15814;SDS011;8008;50.024;8.172;2023-07-29T06:23:53;5.25;;;3.78;;
15814;SDS011;8008;50.024;8.172;2023-07-29T06:26:21;4.95;;;3.78;;
15814;SDS011;8008;50.024;8.172;2023-07-29T06:28:52;4.03;;;3.55;;
15814;SDS011;8008;50.024;8.172;2023-07-29T06:31:20;4.70;;;3.70;;
15814;SDS011;8008;50.024;8.172;2023-07-29T06:33:48;5.05;;;3.80;;
15814;SDS011;8008;50.024;8.172;2023-07-29T06:36:16;3.85;;;3.20;;
15814;SDS011;8008;50.024;8.172;2023-07-29T06:38:44;4.15;;;3.15;;
15814;SDS011;8008;50.024;8.172;2023-07-29T06:41:12;4.43;;;3.35;;
15814;SDS011;8008;50.024;8.172;2023-07-29T06:43:42;4.97;;;3.70;;
15814;SDS011;8008;50.024;8.172;2023-07-29T06:46:11;3.63;;;3.33;;
15814;SDS011;8008;50.024;8.172;2023-07-29T06:48:39;3.88;;;3.33;;
15814;SDS011;8008;50.024;8.172;2023-07-29T06:51:07;4.25;;;3.30;;
15814;SDS011;8008;50.024;8.172;2023-07-29T06:53:35;4.35;;;3.20;;
15814;SDS011;8008;50.024;8.172;2023-07-29T06:56:03;3.80;;;3.40;;
15814;SDS011;8008;50.024;8.172;2023-07-29T06:58:31;3.38;;;3.08;;
15814;SDS011;8008;50.024;8.172;2023-07-29T07:00:59;3.53;;;3.20;;
15814;SDS011;8008;50.024;8.172;2023-07-29T07:03:28;6.28;;;3.63;;
15814;SDS011;8008;50.024;8.172;2023-07-29T07:05:56;4.75;;;3.83;;
15814;SDS011;8008;50.024;8.172;2023-07-29T07:08:24;3.95;;;3.55;;
15814;SDS011;8008;50.024;8.172;2023-07-29T07:10:52;4.95;;;3.50;;
15814;SDS011;8008;50.024;8.172;2023-07-29T07:13:21;4.22;;;3.53;;
15814;SDS011;8008;50.024;8.172;2023-07-29T07:15:49;4.07;;;3.67;;
15814;SDS011;8008;50.024;8.172;2023-07-29T07:18:17;4.05;;;3.47;;
15814;SDS011;8008;50.024;8.172;2023-07-29T07:20:48;3.97;;;3.65;;
15814;SDS011;8008;50.024;8.172;2023-07-29T07:23:17;5.35;;;3.70;;
15814;SDS011;8008;50.024;8.172;2023-07-29T07:25:45;4.10;;;3.70;;
15814;SDS011;8008;50.024;8.172;2023-07-29T07:28:13;4.10;;;3.70;;
15814;SDS011;8008;50.024;8.172;2023-07-29T07:30:41;4.22;;;3.40;;
15814;SDS011;8008;50.024;8.172;2023-07-29T07:33:09;3.67;;;3.38;;
15814;SDS011;8008;50.024;8.172;2023-07-29T07:35:37;5.15;;;3.60;;
15814;SDS011;8008;50.024;8.172;2023-07-29T07:38:06;3.92;;;3.42;;
15814;SDS011;8008;50.024;8.172;2023-07-29T07:40:36;3.67;;;3.17;;
15814;SDS011;8008;50.024;8.172;2023-07-29T07:43:04;3.90;;;3.50;;
15814;SDS011;8008;50.024;8.172;2023-07-29T07:45:31;4.00;;;3.70;;
15814;SDS011;8008;50.024;8.172;2023-07-29T07:47:59;4.88;;;3.60;;
15814;SDS011;8008;50.024;8.172;2023-07-29T07:50:29;4.05;;;3.65;;
15814;SDS011;8008;50.024;8.172;2023-07-29T07:52:57;4.50;;;3.90;;
15814;SDS011;8008;50.024;8.172;2023-07-29T07:55:26;5.25;;;3.90;;
15814;SDS011;8008;50.024;8.172;2023-07-29T07:57:54;4.00;;;3.70;;
15814;SDS011;8008;50.024;8.172;2023-07-29T08:00:22;4.32;;;3.92;;
15814;SDS011;8008;50.024;8.172;2023-07-29T08:02:50;5.15;;;3.95;;
15814;SDS011;8008;50.024;8.172;2023-07-29T08:05:18;4.40;;;3.75;;
15814;SDS011;8008;50.024;8.172;2023-07-29T08:07:46;4.00;;;3.70;;
15814;SDS011;8008;50.024;8.172;2023-07-29T08:10:14;4.28;;;3.80;;
15814;SDS011;8008;50.024;8.172;2023-07-29T08:12:44;3.83;;;3.50;;
15814;SDS011;8008;50.024;8.172;2023-07-29T08:15:11;3.90;;;3.60;;
15814;SDS011;8008;50.024;8.172;2023-07-29T08:17:39;3.60;;;3.30;;
15814;SDS011;8008;50.024;8.172;2023-07-29T08:20:07;3.70;;;3.40;;
15814;SDS011;8008;50.024;8.172;2023-07-29T08:22:36;3.75;;;3.45;;
15814;SDS011;8008;50.024;8.172;2023-07-29T08:25:04;4.15;;;3.15;;
15814;SDS011;8008;50.024;8.172;2023-07-29T08:27:33;4.50;;;3.20;;
15814;SDS011;8008;50.024;8.172;2023-07-29T08:30:03;3.38;;;3.10;;
15814;SDS011;8008;50.024;8.172;2023-07-29T08:32:31;3.97;;;2.97;;
15814;SDS011;8008;50.024;8.172;2023-07-29T08:34:59;3.38;;;3.08;;
15814;SDS011;8008;50.024;8.172;2023-07-29T08:37:27;3.17;;;2.60;;
15814;SDS011;8008;50.024;8.172;2023-07-29T08:39:55;2.60;;;2.40;;
15814;SDS011;8008;50.024;8.172;2023-07-29T08:42:23;2.30;;;2.20;;
15814;SDS011;8008;50.024;8.172;2023-07-29T08:44:56;2.47;;;2.28;;
15814;SDS011;8008;50.024;8.172;2023-07-29T08:47:30;2.33;;;2.13;;
15814;SDS011;8008;50.024;8.172;2023-07-29T08:49:57;4.55;;;2.20;;
15814;SDS011;8008;50.024;8.172;2023-07-29T08:52:28;2.92;;;2.42;;
15814;SDS011;8008;50.024;8.172;2023-07-29T08:54:58;2.95;;;2.20;;
15814;SDS011;8008;50.024;8.172;2023-07-29T08:57:27;2.17;;;2.08;;
15814;SDS011;8008;50.024;8.172;2023-07-29T08:59:56;2.88;;;2.30;;
15814;SDS011;8008;50.024;8.172;2023-07-29T09:02:25;2.70;;;2.47;;
15814;SDS011;8008;50.024;8.172;2023-07-29T09:04:54;2.55;;;2.30;;
15814;SDS011;8008;50.024;8.172;2023-07-29T09:07:22;2.63;;;2.30;;
15814;SDS011;8008;50.024;8.172;2023-07-29T09:09:50;3.85;;;2.15;;
15814;SDS011;8008;50.024;8.172;2023-07-29T09:12:18;2.60;;;2.40;;
15814;SDS011;8008;50.024;8.172;2023-07-29T09:14:47;3.72;;;2.20;;
15814;SDS011;8008;50.024;8.172;2023-07-29T09:17:19;2.40;;;2.20;;
15814;SDS011;8008;50.024;8.172;2023-07-29T09:19:48;2.85;;;2.00;;
15814;SDS011;8008;50.024;8.172;2023-07-29T09:22:20;2.20;;;2.00;;
15814;SDS011;8008;50.024;8.172;2023-07-29T09:24:48;2.75;;;2.00;;
15814;SDS011;8008;50.024;8.172;2023-07-29T09:27:23;2.00;;;1.90;;
15814;SDS011;8008;50.024;8.172;2023-07-29T09:29:51;2.72;;;2.00;;
15814;SDS011;8008;50.024;8.172;2023-07-29T09:32:20;2.25;;;2.10;;
15814;SDS011;8008;50.024;8.172;2023-07-29T09:34:49;2.05;;;1.92;;
15814;SDS011;8008;50.024;8.172;2023-07-29T09:37:17;1.90;;;1.80;;
15814;SDS011;8008;50.024;8.172;2023-07-29T09:39:49;2.30;;;1.80;;
15814;SDS011;8008;50.024;8.172;2023-07-29T09:42:18;1.80;;;1.70;;
15814;SDS011;8008;50.024;8.172;2023-07-29T09:44:47;1.80;;;1.70;;
15814;SDS011;8008;50.024;8.172;2023-07-29T09:47:20;2.90;;;2.03;;
15814;SDS011;8008;50.024;8.172;2023-07-29T09:49:49;1.83;;;1.73;;
15814;SDS011;8008;50.024;8.172;2023-07-29T09:52:17;2.42;;;1.90;;
15814;SDS011;8008;50.024;8.172;2023-07-29T09:54:46;1.98;;;1.88;;
15814;SDS011;8008;50.024;8.172;2023-07-29T09:57:16;1.90;;;1.70;;
15814;SDS011;8008;50.024;8.172;2023-07-29T09:59:52;1.80;;;1.70;;
15814;SDS011;8008;50.024;8.172;2023-07-29T10:02:21;1.70;;;1.60;;
15814;SDS011;8008;50.024;8.172;2023-07-29T10:04:51;2.17;;;1.98;;
15814;SDS011;8008;50.024;8.172;2023-07-29T10:07:20;3.25;;;1.70;;
15814;SDS011;8008;50.024;8.172;2023-07-29T10:09:49;1.60;;;1.50;;
15814;SDS011;8008;50.024;8.172;2023-07-29T10:12:20;2.15;;;1.70;;
15814;SDS011;8008;50.024;8.172;2023-07-29T10:14:49;1.95;;;1.85;;
15814;SDS011;8008;50.024;8.172;2023-07-29T10:17:18;1.83;;;1.70;;
15814;SDS011;8008;50.024;8.172;2023-07-29T10:19:48;1.60;;;1.50;;
15814;SDS011;8008;50.024;8.172;2023-07-29T10:22:17;1.83;;;1.73;;
15814;SDS011;8008;50.024;8.172;2023-07-29T10:24:48;1.77;;;1.67;;
15814;SDS011;8008;50.024;8.172;2023-07-29T10:27:18;1.90;;;1.80;;
15814;SDS011;8008;50.024;8.172;2023-07-29T10:29:50;3.00;;;1.77;;
15814;SDS011;8008;50.024;8.172;2023-07-29T10:32:19;1.92;;;1.80;;
15814;SDS011;8008;50.024;8.172;2023-07-29T10:34:52;1.90;;;1.80;;
15814;SDS011;8008;50.024;8.172;2023-07-29T10:37:20;1.80;;;1.70;;
15814;SDS011;8008;50.024;8.172;2023-07-29T10:39:53;2.92;;;2.05;;
15814;SDS011;8008;50.024;8.172;2023-07-29T10:42:23;2.10;;;1.90;;
15814;SDS011;8008;50.024;8.172;2023-07-29T10:44:51;2.10;;;1.92;;
15814;SDS011;8008;50.024;8.172;2023-07-29T10:47:20;1.75;;;1.65;;
15814;SDS011;8008;50.024;8.172;2023-07-29T10:49:51;2.10;;;1.90;;
15814;SDS011;8008;50.024;8.172;2023-07-29T10:52:31;2.25;;;1.75;;
15814;SDS011;8008;50.024;8.172;2023-07-29T10:55:23;1.63;;;1.52;;
15814;SDS011;8008;50.024;8.172;2023-07-29T10:58:12;2.78;;;1.70;;
15814;SDS011;8008;50.024;8.172;2023-07-29T11:00:41;1.67;;;1.55;;
15814;SDS011;8008;50.024;8.172;2023-07-29T11:03:11;1.88;;;1.77;;
15814;SDS011;8008;50.024;8.172;2023-07-29T11:05:41;2.90;;;2.60;;
15814;SDS011;8008;50.024;8.172;2023-07-29T11:08:20;2.60;;;1.70;;
15814;SDS011;8008;50.024;8.172;2023-07-29T11:11:03;2.03;;;1.77;;
15814;SDS011;8008;50.024;8.172;2023-07-29T11:13:34;1.85;;;1.75;;
15814;SDS011;8008;50.024;8.172;2023-07-29T11:16:03;1.88;;;1.77;;
15814;SDS011;8008;50.024;8.172;2023-07-29T11:18:33;1.60;;;1.50;;
15814;SDS011;8008;50.024;8.172;2023-07-29T11:21:02;2.15;;;1.50;;
15814;SDS011;8008;50.024;8.172;2023-07-29T11:23:31;3.38;;;1.60;;
15814;SDS011;8008;50.024;8.172;2023-07-29T11:26:01;1.50;;;1.40;;
15814;SDS011;8008;50.024;8.172;2023-07-29T11:28:30;1.70;;;1.60;;
15814;SDS011;8008;50.024;8.172;2023-07-29T11:30:59;1.70;;;1.60;;
15814;SDS011;8008;50.024;8.172;2023-07-29T11:33:27;2.50;;;1.60;;
15814;SDS011;8008;50.024;8.172;2023-07-29T11:35:56;1.92;;;1.60;;
15814;SDS011;8008;50.024;8.172;2023-07-29T11:38:24;1.67;;;1.50;;
15814;SDS011;8008;50.024;8.172;2023-07-29T11:40:54;1.63;;;1.52;;
15814;SDS011;8008;50.024;8.172;2023-07-29T11:43:23;2.35;;;2.00;;
15814;SDS011;8008;50.024;8.172;2023-07-29T11:45:53;1.70;;;1.60;;
15814;SDS011;8008;50.024;8.172;2023-07-29T11:48:27;2.05;;;1.85;;
15814;SDS011;8008;50.024;8.172;2023-07-29T11:50:56;2.28;;;1.92;;
15814;SDS011;8008;50.024;8.172;2023-07-29T11:53:25;2.13;;;1.58;;
15814;SDS011;8008;50.024;8.172;2023-07-29T11:55:56;3.80;;;1.70;;
15814;SDS011;8008;50.024;8.172;2023-07-29T11:58:24;3.08;;;1.85;;
15814;SDS011;8008;50.024;8.172;2023-07-29T12:00:53;3.42;;;1.55;;
15814;SDS011;8008;50.024;8.172;2023-07-29T12:03:21;1.73;;;1.63;;
15814;SDS011;8008;50.024;8.172;2023-07-29T12:05:51;1.60;;;1.50;;
15814;SDS011;8008;50.024;8.172;2023-07-29T12:08:19;2.33;;;1.63;;
15814;SDS011;8008;50.024;8.172;2023-07-29T12:10:47;1.90;;;1.80;;
15814;SDS011;8008;50.024;8.172;2023-07-29T12:13:16;3.08;;;1.60;;
15814;SDS011;8008;50.024;8.172;2023-07-29T12:15:44;2.72;;;1.60;;
15814;SDS011;8008;50.024;8.172;2023-07-29T12:18:12;1.55;;;1.45;;
15814;SDS011;8008;50.024;8.172;2023-07-29T12:20:41;1.83;;;1.60;;
15814;SDS011;8008;50.024;8.172;2023-07-29T12:23:10;1.80;;;1.70;;
15814;SDS011;8008;50.024;8.172;2023-07-29T12:25:38;1.63;;;1.52;;
15814;SDS011;8008;50.024;8.172;2023-07-29T12:28:06;3.28;;;1.70;;
15814;SDS011;8008;50.024;8.172;2023-07-29T12:30:40;1.70;;;1.60;;
15814;SDS011;8008;50.024;8.172;2023-07-29T12:33:09;1.80;;;1.70;;
15814;SDS011;8008;50.024;8.172;2023-07-29T12:35:37;2.53;;;1.50;;
15814;SDS011;8008;50.024;8.172;2023-07-29T12:38:05;1.50;;;1.40;;
15814;SDS011;8008;50.024;8.172;2023-07-29T12:40:37;1.60;;;1.50;;
15814;SDS011;8008;50.024;8.172;2023-07-29T12:43:05;2.55;;;1.60;;
15814;SDS011;8008;50.024;8.172;2023-07-29T12:45:35;2.08;;;1.58;;
15814;SDS011;8008;50.024;8.172;2023-07-29T12:48:06;1.55;;;1.45;;
15814;SDS011;8008;50.024;8.172;2023-07-29T12:50:34;1.80;;;1.70;;
15814;SDS011;8008;50.024;8.172;2023-07-29T12:53:01;2.38;;;1.90;;
15814;SDS011;8008;50.024;8.172;2023-07-29T12:55:29;1.70;;;1.60;;
15814;SDS011;8008;50.024;8.172;2023-07-29T12:57:59;1.60;;;1.50;;
15814;SDS011;8008;50.024;8.172;2023-07-29T13:00:27;1.52;;;1.42;;
15814;SDS011;8008;50.024;8.172;2023-07-29T13:02:55;2.10;;;1.70;;
15814;SDS011;8008;50.024;8.172;2023-07-29T13:05:23;1.60;;;1.50;;
15814;SDS011;8008;50.024;8.172;2023-07-29T13:07:51;1.70;;;1.60;;
15814;SDS011;8008;50.024;8.172;2023-07-29T13:10:19;1.95;;;1.77;;
15814;SDS011;8008;50.024;8.172;2023-07-29T13:12:47;2.08;;;1.73;;
15814;SDS011;8008;50.024;8.172;2023-07-29T13:15:17;1.60;;;1.50;;
15814;SDS011;8008;50.024;8.172;2023-07-29T13:17:45;1.60;;;1.50;;
15814;SDS011;8008;50.024;8.172;2023-07-29T13:20:13;1.90;;;1.63;;
15814;SDS011;8008;50.024;8.172;2023-07-29T13:22:41;1.60;;;1.50;;
15814;SDS011;8008;50.024;8.172;2023-07-29T13:25:09;1.58;;;1.48;;
15814;SDS011;8008;50.024;8.172;2023-07-29T13:27:36;1.70;;;1.60;;
15814;SDS011;8008;50.024;8.172;2023-07-29T13:30:05;1.73;;;1.63;;
15814;SDS011;8008;50.024;8.172;2023-07-29T13:32:35;2.22;;;1.77;;
15814;SDS011;8008;50.024;8.172;2023-07-29T13:35:04;3.22;;;1.83;;
15814;SDS011;8008;50.024;8.172;2023-07-29T13:37:33;3.05;;;1.73;;
15814;SDS011;8008;50.024;8.172;2023-07-29T13:40:01;1.58;;;1.48;;
15814;SDS011;8008;50.024;8.172;2023-07-29T13:42:28;1.83;;;1.73;;
15814;SDS011;8008;50.024;8.172;2023-07-29T13:44:56;3.15;;;2.28;;
15814;SDS011;8008;50.024;8.172;2023-07-29T13:47:24;2.00;;;1.90;;
15814;SDS011;8008;50.024;8.172;2023-07-29T13:49:54;1.42;;;1.38;;
15814;SDS011;8008;50.024;8.172;2023-07-29T13:52:22;3.40;;;1.80;;
15814;SDS011;8008;50.024;8.172;2023-07-29T13:54:49;2.10;;;1.90;;
15814;SDS011;8008;50.024;8.172;2023-07-29T13:57:17;1.80;;;1.70;;
15814;SDS011;8008;50.024;8.172;2023-07-29T13:59:45;1.70;;;1.60;;
15814;SDS011;8008;50.024;8.172;2023-07-29T14:02:13;1.90;;;1.80;;
15814;SDS011;8008;50.024;8.172;2023-07-29T14:04:41;2.35;;;1.70;;
15814;SDS011;8008;50.024;8.172;2023-07-29T14:07:11;1.70;;;1.60;;
15814;SDS011;8008;50.024;8.172;2023-07-29T14:09:39;2.05;;;1.60;;
15814;SDS011;8008;50.024;8.172;2023-07-29T14:12:09;1.60;;;1.50;;
15814;SDS011;8008;50.024;8.172;2023-07-29T14:14:38;1.88;;;1.42;;
15814;SDS011;8008;50.024;8.172;2023-07-29T14:17:06;3.05;;;1.70;;
15814;SDS011;8008;50.024;8.172;2023-07-29T14:19:34;1.50;;;1.40;;
15814;SDS011;8008;50.024;8.172;2023-07-29T14:22:02;1.70;;;1.50;;
15814;SDS011;8008;50.024;8.172;2023-07-29T14:24:32;2.13;;;1.70;;
15814;SDS011;8008;50.024;8.172;2023-07-29T14:27:00;1.95;;;1.85;;
15814;SDS011;8008;50.024;8.172;2023-07-29T14:29:29;1.90;;;1.80;;
15814;SDS011;8008;50.024;8.172;2023-07-29T14:31:57;1.77;;;1.65;;
15814;SDS011;8008;50.024;8.172;2023-07-29T14:34:25;1.85;;;1.75;;
15814;SDS011;8008;50.024;8.172;2023-07-29T14:36:53;1.60;;;1.50;;
15814;SDS011;8008;50.024;8.172;2023-07-29T14:39:20;1.80;;;1.63;;
15814;SDS011;8008;50.024;8.172;2023-07-29T14:41:50;2.55;;;1.80;;
15814;SDS011;8008;50.024;8.172;2023-07-29T14:44:18;1.80;;;1.70;;
15814;SDS011;8008;50.024;8.172;2023-07-29T14:46:46;3.20;;;1.80;;
15814;SDS011;8008;50.024;8.172;2023-07-29T14:49:13;1.88;;;1.70;;
15814;SDS011;8008;50.024;8.172;2023-07-29T14:51:41;1.65;;;1.55;;
15814;SDS011;8008;50.024;8.172;2023-07-29T14:54:09;2.40;;;1.80;;
15814;SDS011;8008;50.024;8.172;2023-07-29T14:56:37;1.80;;;1.70;;
15814;SDS011;8008;50.024;8.172;2023-07-29T14:59:06;2.97;;;1.77;;
15814;SDS011;8008;50.024;8.172;2023-07-29T15:01:34;1.80;;;1.70;;
15814;SDS011;8008;50.024;8.172;2023-07-29T15:04:02;1.85;;;1.75;;
15814;SDS011;8008;50.024;8.172;2023-07-29T15:06:31;2.40;;;1.70;;
15814;SDS011;8008;50.024;8.172;2023-07-29T15:08:59;1.98;;;1.67;;
15814;SDS011;8008;50.024;8.172;2023-07-29T15:11:27;1.80;;;1.50;;
15814;SDS011;8008;50.024;8.172;2023-07-29T15:13:55;1.90;;;1.80;;
15814;SDS011;8008;50.024;8.172;2023-07-29T15:16:24;1.70;;;1.60;;
15814;SDS011;8008;50.024;8.172;2023-07-29T15:18:52;1.58;;;1.48;;
15814;SDS011;8008;50.024;8.172;2023-07-29T15:21:20;2.15;;;2.03;;
15814;SDS011;8008;50.024;8.172;2023-07-29T15:23:48;2.00;;;1.80;;
15814;SDS011;8008;50.024;8.172;2023-07-29T15:26:16;1.90;;;1.80;;
15814;SDS011;8008;50.024;8.172;2023-07-29T15:28:44;2.08;;;1.88;;
15814;SDS011;8008;50.024;8.172;2023-07-29T15:31:12;2.17;;;1.98;;
15814;SDS011;8008;50.024;8.172;2023-07-29T15:33:42;1.80;;;1.70;;
15814;SDS011;8008;50.024;8.172;2023-07-29T15:36:10;1.83;;;1.73;;
15814;SDS011;8008;50.024;8.172;2023-07-29T15:38:39;1.90;;;1.80;;
15814;SDS011;8008;50.024;8.172;2023-07-29T15:41:07;2.22;;;1.70;;
15814;SDS011;8008;50.024;8.172;2023-07-29T15:43:34;1.92;;;1.83;;
15814;SDS011;8008;50.024;8.172;2023-07-29T15:46:02;2.13;;;1.60;;
15814;SDS011;8008;50.024;8.172;2023-07-29T15:48:30;1.92;;;1.83;;
15814;SDS011;8008;50.024;8.172;2023-07-29T15:51:00;1.77;;;1.67;;
15814;SDS011;8008;50.024;8.172;2023-07-29T15:53:28;1.80;;;1.70;;
15814;SDS011;8008;50.024;8.172;2023-07-29T15:55:56;2.08;;;1.88;;
15814;SDS011;8008;50.024;8.172;2023-07-29T15:58:24;1.70;;;1.60;;
15814;SDS011;8008;50.024;8.172;2023-07-29T16:00:52;1.65;;;1.55;;
15814;SDS011;8008;50.024;8.172;2023-07-29T16:03:19;2.55;;;1.88;;
15814;SDS011;8008;50.024;8.172;2023-07-29T16:05:48;2.03;;;1.80;;
15814;SDS011;8008;50.024;8.172;2023-07-29T16:08:18;1.60;;;1.50;;
15814;SDS011;8008;50.024;8.172;2023-07-29T16:10:46;1.60;;;1.50;;
15814;SDS011;8008;50.024;8.172;2023-07-29T16:13:14;1.70;;;1.60;;
15814;SDS011;8008;50.024;8.172;2023-07-29T16:15:44;1.73;;;1.63;;
15814;SDS011;8008;50.024;8.172;2023-07-29T16:18:12;2.88;;;1.55;;
15814;SDS011;8008;50.024;8.172;2023-07-29T16:20:40;2.75;;;1.67;;
15814;SDS011;8008;50.024;8.172;2023-07-29T16:23:08;1.73;;;1.63;;
15814;SDS011;8008;50.024;8.172;2023-07-29T16:25:37;1.73;;;1.63;;
15814;SDS011;8008;50.024;8.172;2023-07-29T16:28:05;1.60;;;1.50;;
15814;SDS011;8008;50.024;8.172;2023-07-29T16:30:33;1.60;;;1.50;;
15814;SDS011;8008;50.024;8.172;2023-07-29T16:33:02;1.70;;;1.60;;
15814;SDS011;8008;50.024;8.172;2023-07-29T16:35:30;2.30;;;1.55;;
15814;SDS011;8008;50.024;8.172;2023-07-29T16:37:58;2.00;;;1.75;;
15814;SDS011;8008;50.024;8.172;2023-07-29T16:40:27;1.58;;;1.48;;
15814;SDS011;8008;50.024;8.172;2023-07-29T16:42:56;1.70;;;1.60;;
15814;SDS011;8008;50.024;8.172;2023-07-29T16:45:24;2.08;;;1.75;;
15814;SDS011;8008;50.024;8.172;2023-07-29T16:47:53;2.15;;;1.67;;
15814;SDS011;8008;50.024;8.172;2023-07-29T16:50:22;2.83;;;2.00;;
15814;SDS011;8008;50.024;8.172;2023-07-29T16:52:50;3.20;;;1.90;;
15814;SDS011;8008;50.024;8.172;2023-07-29T16:55:20;1.75;;;1.65;;
15814;SDS011;8008;50.024;8.172;2023-07-29T16:57:48;2.10;;;1.90;;
15814;SDS011;8008;50.024;8.172;2023-07-29T17:00:17;2.20;;;2.00;;
15814;SDS011;8008;50.024;8.172;2023-07-29T17:02:45;2.35;;;2.15;;
15814;SDS011;8008;50.024;8.172;2023-07-29T17:05:13;2.10;;;1.90;;
15814;SDS011;8008;50.024;8.172;2023-07-29T17:07:41;2.10;;;1.90;;
15814;SDS011;8008;50.024;8.172;2023-07-29T17:10:09;1.50;;;1.40;;
15814;SDS011;8008;50.024;8.172;2023-07-29T17:12:37;1.60;;;1.50;;
15814;SDS011;8008;50.024;8.172;2023-07-29T17:15:05;1.80;;;1.70;;
15814;SDS011;8008;50.024;8.172;2023-07-29T17:17:36;1.98;;;1.60;;
15814;SDS011;8008;50.024;8.172;2023-07-29T17:20:05;1.83;;;1.73;;
15814;SDS011;8008;50.024;8.172;2023-07-29T17:22:35;1.70;;;1.60;;
15814;SDS011;8008;50.024;8.172;2023-07-29T17:25:04;2.22;;;1.60;;
15814;SDS011;8008;50.024;8.172;2023-07-29T17:27:32;1.90;;;1.80;;
15814;SDS011;8008;50.024;8.172;2023-07-29T17:30:00;1.90;;;1.80;;
15814;SDS011;8008;50.024;8.172;2023-07-29T17:32:28;1.95;;;1.85;;
15814;SDS011;8008;50.024;8.172;2023-07-29T17:34:57;1.70;;;1.60;;
15814;SDS011;8008;50.024;8.172;2023-07-29T17:37:25;1.58;;;1.48;;
15814;SDS011;8008;50.024;8.172;2023-07-29T17:39:53;3.38;;;1.70;;
15814;SDS011;8008;50.024;8.172;2023-07-29T17:42:21;1.60;;;1.50;;
15814;SDS011;8008;50.024;8.172;2023-07-29T17:44:49;1.70;;;1.60;;
15814;SDS011;8008;50.024;8.172;2023-07-29T17:47:17;1.80;;;1.70;;
15814;SDS011;8008;50.024;8.172;2023-07-29T17:49:45;1.90;;;1.80;;
15814;SDS011;8008;50.024;8.172;2023-07-29T17:52:15;3.72;;;1.90;;
15814;SDS011;8008;50.024;8.172;2023-07-29T17:54:42;1.92;;;1.83;;
15814;SDS011;8008;50.024;8.172;2023-07-29T17:57:10;1.75;;;1.65;;
15814;SDS011;8008;50.024;8.172;2023-07-29T17:59:38;1.92;;;1.65;;
15814;SDS011;8008;50.024;8.172;2023-07-29T18:02:06;2.08;;;1.88;;
15814;SDS011;8008;50.024;8.172;2023-07-29T18:04:34;1.70;;;1.60;;
15814;SDS011;8008;50.024;8.172;2023-07-29T18:07:02;1.70;;;1.60;;
15814;SDS011;8008;50.024;8.172;2023-07-29T18:09:32;2.00;;;1.80;;
15814;SDS011;8008;50.024;8.172;2023-07-29T18:12:00;2.72;;;1.77;;